createdAt,value
2019-02-26T00:01:16.361Z,63.56
2019-02-26T00:03:45.620Z,63.65
2019-02-26T00:06:16.144Z,63.86
2019-02-26T00:08:49.248Z,64.44
2019-02-26T00:11:18.137Z,64.54
2019-02-26T00:13:49.843Z,64.38
2019-02-26T00:16:20.552Z,64.64
2019-02-26T00:18:50.669Z,64.65
2019-02-26T00:21:22.217Z,64.79
2019-02-26T00:23:53.168Z,64.96
2019-02-26T00:26:23.066Z,65.10
2019-02-26T00:28:52.866Z,65.21
2019-02-26T00:31:24.310Z,65.23
2019-02-26T00:33:54.252Z,65.72
2019-02-26T00:36:27.024Z,65.99
2019-02-26T00:38:58.391Z,66.10
2019-02-26T00:41:29.067Z,66.63
2019-02-26T00:43:59.950Z,66.53
2019-02-26T00:46:32.515Z,66.81
2019-02-26T00:49:05.162Z,67.03
2019-02-26T00:51:33.866Z,67.09
2019-02-26T00:54:04.145Z,67.19
2019-02-26T00:56:36.375Z,67.43
2019-02-26T00:59:06.217Z,67.45
2019-02-26T01:01:35.984Z,67.80
2019-02-26T01:04:05.788Z,68.02
2019-02-26T01:06:35.559Z,68.13
2019-02-26T01:09:11.226Z,68.16
2019-02-26T01:11:40.307Z,68.49
2019-02-26T01:14:10.142Z,68.55
2019-02-26T01:16:41.584Z,68.39
2019-02-26T01:19:13.534Z,68.38
2019-02-26T01:21:44.262Z,68.70
2019-02-26T01:24:16.156Z,68.87
2019-02-26T01:26:46.004Z,68.83
2019-02-26T01:29:18.560Z,69.12
2019-02-26T01:31:47.255Z,69.12
2019-02-26T01:34:18.062Z,69.24
2019-02-26T01:36:49.567Z,69.32
2019-02-26T01:39:21.559Z,69.29
2019-02-26T01:41:53.326Z,69.50
2019-02-26T01:44:22.522Z,69.65
2019-02-26T01:46:53.422Z,69.77
2019-02-26T01:49:25.877Z,70.13
2019-02-26T01:51:55.450Z,70.35
2019-02-26T01:54:25.237Z,70.37
2019-02-26T01:56:55.009Z,70.50
2019-02-26T01:59:26.571Z,70.66
2019-02-26T02:01:56.389Z,70.63
2019-02-26T02:04:26.179Z,70.74
2019-02-26T02:06:58.879Z,70.88
2019-02-26T02:09:28.284Z,70.80
2019-02-26T02:11:59.925Z,70.77
2019-02-26T02:14:29.651Z,71.07
2019-02-26T02:17:01.675Z,71.13
2019-02-26T02:19:32.699Z,71.14
2019-02-26T02:22:02.492Z,71.18
2019-02-26T02:24:33.842Z,71.45
2019-02-26T02:27:03.645Z,71.47
2019-02-26T02:29:33.436Z,71.61
2019-02-26T02:32:04.984Z,71.71
2019-02-26T02:34:36.576Z,71.77
2019-02-26T02:37:06.179Z,71.90
2019-02-26T02:39:37.690Z,72.06
2019-02-26T02:42:08.366Z,72.15
2019-02-26T02:44:42.367Z,72.38
2019-02-26T02:47:12.165Z,72.46
2019-02-26T02:49:44.368Z,72.43
2019-02-26T02:52:14.591Z,72.72
2019-02-26T02:54:47.016Z,72.59
2019-02-26T02:57:15.852Z,73.00
2019-02-26T02:59:45.643Z,73.08
2019-02-26T03:02:17.623Z,73.34
2019-02-26T03:04:46.991Z,73.37
2019-02-26T03:07:18.056Z,73.30
2019-02-26T03:09:48.222Z,73.51
2019-02-26T03:12:17.990Z,73.51
2019-02-26T03:14:50.820Z,73.56
2019-02-26T03:17:20.596Z,73.59
2019-02-26T03:19:50.484Z,73.86
2019-02-26T03:22:21.570Z,73.84
2019-02-26T03:24:53.815Z,73.62
2019-02-26T03:27:23.142Z,73.98
2019-02-26T03:29:55.586Z,74.20
2019-02-26T03:32:24.425Z,74.12
2019-02-26T03:34:54.242Z,74.20
2019-02-26T03:37:25.830Z,74.55
2019-02-26T03:39:57.402Z,74.68
2019-02-26T03:42:27.026Z,74.84
2019-02-26T03:44:56.828Z,74.82
2019-02-26T03:47:26.606Z,74.86
2019-02-26T03:49:56.383Z,74.84
2019-02-26T03:52:26.157Z,75.03
2019-02-26T03:54:55.899Z,75.05
2019-02-26T03:57:25.689Z,74.91
2019-02-26T03:59:55.450Z,74.93
2019-02-26T04:02:25.205Z,74.82
2019-02-26T04:04:57.114Z,75.16
2019-02-26T04:07:35.964Z,74.97
2019-02-26T04:10:09.306Z,75.14
2019-02-26T04:12:45.064Z,75.33
2019-02-26T04:15:17.083Z,75.31
2019-02-26T04:17:47.222Z,75.38
2019-02-26T04:20:17.015Z,75.54
2019-02-26T04:22:50.018Z,75.64
2019-02-26T04:25:29.995Z,75.48
2019-02-26T04:28:08.687Z,75.62
2019-02-26T04:31:02.596Z,75.77
2019-02-26T04:33:58.911Z,75.80
2019-02-26T04:36:37.835Z,75.96
2019-02-26T04:39:22.116Z,75.83
2019-02-26T04:41:57.150Z,76.10
2019-02-26T04:44:50.080Z,76.40
2019-02-26T04:47:21.977Z,76.50
2019-02-26T04:49:51.041Z,76.98
2019-02-26T04:52:20.778Z,76.98
2019-02-26T04:54:50.590Z,76.82
2019-02-26T04:57:20.317Z,76.95
2019-02-26T04:59:50.089Z,76.89
2019-02-26T05:02:19.863Z,77.07
2019-02-26T05:04:49.605Z,77.25
2019-02-26T05:07:19.493Z,77.45
2019-02-26T05:09:51.143Z,77.57
2019-02-26T05:12:20.725Z,77.59
2019-02-26T05:14:50.498Z,77.60
2019-02-26T05:17:23.456Z,77.75
2019-02-26T05:19:51.940Z,77.71
2019-02-26T05:22:22.855Z,78.13
2019-02-26T05:24:53.209Z,78.12
2019-02-26T05:27:24.970Z,78.18
2019-02-26T05:29:54.887Z,77.82
2019-02-26T05:32:27.331Z,77.84
2019-02-26T05:34:56.362Z,77.90
2019-02-26T05:37:28.856Z,77.98
2019-02-26T05:39:57.646Z,77.95
2019-02-26T05:42:27.560Z,77.61
2019-02-26T05:44:59.840Z,77.73
2019-02-26T05:47:30.277Z,77.72
2019-02-26T05:50:02.567Z,77.59
2019-02-26T05:52:33.142Z,77.51
2019-02-26T05:55:02.944Z,77.70
2019-02-26T05:57:32.913Z,77.82
2019-02-26T06:00:02.771Z,77.71
2019-02-26T06:02:32.484Z,77.68
2019-02-26T06:05:02.227Z,77.58
2019-02-26T06:07:33.966Z,77.66
2019-02-26T06:10:03.447Z,77.70
2019-02-26T06:12:35.578Z,77.60
2019-02-26T06:15:07.918Z,77.73
2019-02-26T06:17:40.530Z,77.68
2019-02-26T06:20:23.556Z,77.59
2019-02-26T06:22:53.276Z,77.78
2019-02-26T06:25:24.441Z,77.75
2019-02-26T06:27:54.488Z,77.65
2019-02-26T06:30:24.299Z,77.45
2019-02-26T06:32:54.022Z,77.20
2019-02-26T06:35:23.790Z,77.26
2019-02-26T06:37:53.561Z,77.58
2019-02-26T06:40:23.299Z,77.61
2019-02-26T06:42:53.088Z,77.72
2019-02-26T06:45:22.818Z,77.72
2019-02-26T06:47:54.626Z,77.79
2019-02-26T06:50:24.033Z,77.77
2019-02-26T06:52:53.825Z,77.75
2019-02-26T06:55:23.554Z,77.52
2019-02-26T06:57:55.180Z,77.41
2019-02-26T07:00:27.015Z,77.53
2019-02-26T07:02:56.551Z,77.57
2019-02-26T07:05:26.283Z,77.69
2019-02-26T07:07:57.142Z,77.68
2019-02-26T07:10:29.566Z,77.59
2019-02-26T07:12:59.047Z,77.25
2019-02-26T07:15:29.453Z,77.30
2019-02-26T07:18:02.197Z,77.19
2019-02-26T07:20:34.061Z,77.00
2019-02-26T07:23:03.913Z,76.85
2019-02-26T07:25:36.294Z,76.93
2019-02-26T07:28:05.211Z,76.92
2019-02-26T07:30:37.422Z,76.89
2019-02-26T07:33:08.154Z,76.99
2019-02-26T07:35:39.707Z,76.88
2019-02-26T07:38:09.441Z,76.87
2019-02-26T07:40:40.452Z,76.62
2019-02-26T07:43:14.397Z,76.35
2019-02-26T07:45:41.942Z,76.29
2019-02-26T07:48:16.126Z,76.31
2019-02-26T07:50:45.729Z,76.45
2019-02-26T07:53:17.183Z,76.43
2019-02-26T07:55:49.161Z,76.33
2019-02-26T07:58:18.961Z,76.36
2019-02-26T08:00:49.850Z,76.20
2019-02-26T08:03:23.753Z,76.14
2019-02-26T08:05:51.999Z,75.99
2019-02-26T08:08:21.779Z,75.72
2019-02-26T08:10:53.137Z,76.04
2019-02-26T08:13:24.392Z,76.01
2019-02-26T08:15:55.153Z,75.78
2019-02-26T08:18:26.008Z,75.59
2019-02-26T08:20:57.951Z,75.01
2019-02-26T08:23:27.306Z,74.96
2019-02-26T08:25:59.583Z,75.04
2019-02-26T08:28:28.548Z,74.71
2019-02-26T08:30:58.319Z,74.64
2019-02-26T08:33:28.165Z,74.39
2019-02-26T08:35:57.966Z,74.48
2019-02-26T08:38:29.994Z,74.24
2019-02-26T08:40:59.334Z,73.97
2019-02-26T08:43:29.407Z,73.87
2019-02-26T08:45:59.176Z,73.86
2019-02-26T08:48:29.005Z,73.62
2019-02-26T08:51:03.063Z,73.52
2019-02-26T08:53:31.603Z,73.29
2019-02-26T08:56:03.968Z,72.84
2019-02-26T08:58:33.007Z,72.96
2019-02-26T09:01:02.777Z,72.36
2019-02-26T09:03:40.325Z,72.63
2019-02-26T09:06:12.806Z,72.43
2019-02-26T09:08:37.760Z,71.91
2019-02-26T09:11:10.810Z,71.59
2019-02-26T09:13:43.790Z,71.61
2019-02-26T09:16:12.752Z,70.80
2019-02-26T09:18:42.545Z,70.70
2019-02-26T09:21:13.505Z,70.52
2019-02-26T09:23:47.440Z,70.38
2019-02-26T09:26:15.296Z,70.30
2019-02-26T09:28:50.049Z,70.04
2019-02-26T09:31:19.926Z,69.94
2019-02-26T09:33:49.834Z,69.55
2019-02-26T09:36:23.130Z,69.97
2019-02-26T09:38:51.503Z,70.27
2019-02-26T09:41:21.583Z,69.48
2019-02-26T09:43:51.372Z,69.96
2019-02-26T09:46:21.140Z,69.61
2019-02-26T09:48:50.904Z,69.93
2019-02-26T09:51:20.666Z,69.44
2019-02-26T09:53:52.584Z,69.16
2019-02-26T09:56:23.373Z,68.64
2019-02-26T09:58:53.174Z,68.20
2019-02-26T10:01:24.664Z,68.08
2019-02-26T10:03:56.000Z,68.14
2019-02-26T10:06:25.924Z,67.60
2019-02-26T10:08:56.170Z,67.62
2019-02-26T10:11:28.058Z,67.68
2019-02-26T10:13:58.076Z,67.50
2019-02-26T10:16:28.703Z,66.95
2019-02-26T10:18:59.658Z,67.14
2019-02-26T10:21:29.425Z,66.29
2019-02-26T10:23:59.921Z,65.79
2019-02-26T10:26:31.335Z,66.38
2019-02-26T10:29:04.439Z,65.95
2019-02-26T10:31:33.632Z,65.65
2019-02-26T10:34:07.908Z,66.05
2019-02-26T10:36:39.016Z,66.53
2019-02-26T10:39:08.281Z,66.66
2019-02-26T10:41:39.886Z,66.47
2019-02-26T10:44:09.772Z,66.47
2019-02-26T10:46:41.952Z,66.59
2019-02-26T10:49:12.451Z,66.42
2019-02-26T10:51:43.059Z,65.58
2019-02-26T10:54:17.662Z,65.88
2019-02-26T10:56:44.942Z,66.38
2019-02-26T10:59:15.892Z,66.21
2019-02-26T11:01:47.557Z,65.46
2019-02-26T11:04:18.134Z,66.09
2019-02-26T11:06:48.015Z,66.07
2019-02-26T11:09:21.269Z,65.31
2019-02-26T11:11:49.291Z,65.13
2019-02-26T11:14:19.513Z,64.77
2019-02-26T11:16:49.331Z,65.05
2019-02-26T11:19:19.131Z,65.07
2019-02-26T11:21:50.675Z,64.98
2019-02-26T11:24:20.387Z,64.97
2019-02-26T11:26:50.155Z,63.52
2019-02-26T11:29:19.908Z,63.28
2019-02-26T11:31:49.828Z,63.03
2019-02-26T11:34:19.582Z,63.44
2019-02-26T11:36:49.407Z,63.27
2019-02-26T11:39:19.137Z,62.59
2019-02-26T11:41:53.110Z,62.42
2019-02-26T11:44:22.648Z,62.58
2019-02-26T11:46:53.844Z,62.07
2019-02-26T11:49:23.333Z,62.13
2019-02-26T11:51:53.124Z,61.11
2019-02-26T11:54:22.889Z,61.02
2019-02-26T11:56:52.705Z,60.93
2019-02-26T11:59:22.479Z,60.96
2019-02-26T12:01:54.029Z,61.42
2019-02-26T12:04:23.835Z,61.42
2019-02-26T12:06:55.732Z,61.77
2019-02-26T12:09:25.080Z,60.80
2019-02-26T12:11:56.025Z,60.94
2019-02-26T12:14:26.345Z,60.75
2019-02-26T12:16:56.140Z,59.38
2019-02-26T12:19:28.198Z,59.12
2019-02-26T12:22:00.788Z,60.17
2019-02-26T12:24:31.284Z,59.37
2019-02-26T12:27:00.566Z,59.33
2019-02-26T12:29:30.335Z,60.29
2019-02-26T12:32:01.301Z,60.44
2019-02-26T12:34:31.609Z,59.03
2019-02-26T12:37:02.651Z,58.28
2019-02-26T12:39:32.930Z,58.37
2019-02-26T12:42:02.815Z,58.94
2019-02-26T12:44:34.774Z,58.12
2019-02-26T12:47:04.154Z,58.20
2019-02-26T12:49:36.502Z,57.86
2019-02-26T12:52:05.383Z,56.69
2019-02-26T12:54:37.769Z,56.92
2019-02-26T12:57:06.739Z,56.53
2019-02-26T12:59:36.522Z,56.03
2019-02-26T13:02:09.328Z,55.95
2019-02-26T13:04:40.879Z,56.33
2019-02-26T13:07:09.485Z,56.17
2019-02-26T13:09:46.868Z,56.41
2019-02-26T13:12:12.461Z,56.59
2019-02-26T13:14:42.541Z,55.80
2019-02-26T13:17:13.974Z,55.25
2019-02-26T13:19:43.814Z,54.95
2019-02-26T13:22:17.450Z,55.00
2019-02-26T13:24:45.075Z,53.96
2019-02-26T13:27:15.080Z,54.07
2019-02-26T13:29:53.586Z,54.14
2019-02-26T13:32:17.549Z,53.84
2019-02-26T13:34:47.855Z,53.38
2019-02-26T13:37:17.650Z,53.90
2019-02-26T13:39:47.421Z,53.26
2019-02-26T13:42:19.297Z,52.21
2019-02-26T13:44:48.737Z,51.76
2019-02-26T13:47:18.582Z,52.23
2019-02-26T13:49:48.346Z,52.58
2019-02-26T13:52:18.148Z,52.48
2019-02-26T13:54:47.909Z,52.27
2019-02-26T13:57:17.678Z,52.68
2019-02-26T13:59:47.668Z,52.98
2019-02-26T14:02:17.399Z,52.77
2019-02-26T14:04:47.643Z,53.27
2019-02-26T14:07:17.380Z,53.25
2019-02-26T14:09:47.182Z,53.37
2019-02-26T14:12:17.105Z,53.57
2019-02-26T14:14:46.932Z,53.51
2019-02-26T14:17:16.642Z,54.27
2019-02-26T14:19:46.413Z,54.33
2019-02-26T14:22:16.173Z,54.87
2019-02-26T14:24:45.981Z,54.62
2019-02-26T14:27:15.758Z,54.95
2019-02-26T14:29:45.553Z,55.49
2019-02-26T14:32:15.318Z,55.24
2019-02-26T14:34:45.276Z,55.46
2019-02-26T14:37:15.044Z,55.75
2019-02-26T14:39:44.780Z,56.03
2019-02-26T14:42:14.572Z,55.88
2019-02-26T14:44:44.310Z,56.18
2019-02-26T14:47:14.088Z,56.03
2019-02-26T14:49:43.868Z,56.16
2019-02-26T14:52:13.668Z,56.45
2019-02-26T14:54:43.447Z,56.74
2019-02-26T14:57:13.487Z,56.77
2019-02-26T14:59:43.250Z,57.07
2019-02-26T15:02:13.059Z,57.00
2019-02-26T15:04:42.845Z,57.37
2019-02-26T15:07:12.583Z,57.33
2019-02-26T15:09:42.371Z,57.17
2019-02-26T15:12:12.108Z,57.43
2019-02-26T15:14:41.855Z,57.55
2019-02-26T15:17:11.833Z,57.25
2019-02-26T15:19:50.276Z,57.49
2019-02-26T15:22:14.835Z,57.49
2019-02-26T15:24:46.236Z,57.73
2019-02-26T15:27:15.969Z,57.60
2019-02-26T15:29:45.739Z,57.56
2019-02-26T15:32:15.502Z,57.64
2019-02-26T15:34:45.240Z,57.63
2019-02-26T15:37:15.043Z,57.75
2019-02-26T15:39:44.776Z,57.72
2019-02-26T15:42:14.720Z,57.85
2019-02-26T15:44:44.487Z,57.94
2019-02-26T15:47:14.246Z,58.27
2019-02-26T15:49:44.039Z,57.97
2019-02-26T15:52:13.777Z,58.08
2019-02-26T15:54:43.538Z,58.36
2019-02-26T15:57:13.301Z,58.59
2019-02-26T15:59:43.031Z,58.53
2019-02-26T16:02:14.376Z,58.69
2019-02-26T16:04:44.277Z,58.89
2019-02-26T16:07:14.073Z,59.20
2019-02-26T16:09:43.851Z,59.48
2019-02-26T16:12:13.620Z,59.77
2019-02-26T16:14:43.388Z,59.97
2019-02-26T16:17:13.113Z,60.42
2019-02-26T16:19:43.691Z,61.16
2019-02-26T16:22:13.626Z,61.98
2019-02-26T16:24:43.411Z,62.44
2019-02-26T16:27:13.145Z,62.70
2019-02-26T16:29:42.931Z,62.94
2019-02-26T16:32:12.668Z,62.94
2019-02-26T16:34:42.435Z,63.27
2019-02-26T16:37:12.356Z,63.50
2019-02-26T16:39:42.273Z,63.67
2019-02-26T16:42:12.318Z,63.76
2019-02-26T16:44:42.107Z,64.01
2019-02-26T16:47:12.606Z,64.23
2019-02-26T16:49:43.377Z,64.31
2019-02-26T16:52:13.176Z,64.57
2019-02-26T16:54:42.951Z,64.61
2019-02-26T16:57:12.714Z,64.73
2019-02-26T16:59:42.480Z,64.88
2019-02-26T17:02:12.209Z,64.98
2019-02-26T17:04:42.014Z,65.03
2019-02-26T17:07:11.739Z,64.99
2019-02-26T17:09:41.799Z,64.77
2019-02-26T17:12:11.574Z,64.87
2019-02-26T17:14:41.381Z,65.04
2019-02-26T17:17:11.147Z,65.22
2019-02-26T17:19:40.916Z,65.34
2019-02-26T17:22:10.679Z,65.50
2019-02-26T17:24:40.416Z,65.54
2019-02-26T17:27:10.392Z,65.67
2019-02-26T17:29:40.130Z,65.58
2019-02-26T17:32:09.899Z,65.75
2019-02-26T17:34:39.684Z,65.87
2019-02-26T17:37:09.465Z,65.93
2019-02-26T17:39:39.705Z,66.05
2019-02-26T17:42:09.497Z,66.04
2019-02-26T17:44:39.263Z,66.20
2019-02-26T17:47:10.509Z,66.11
2019-02-26T17:49:40.290Z,66.26
2019-02-26T17:52:10.058Z,66.41
2019-02-26T17:54:39.830Z,66.55
2019-02-26T17:57:09.576Z,66.66
2019-02-26T18:03:39.273Z,66.82
2019-02-26T19:08:39.157Z,71.51
2019-02-26T19:11:07.182Z,71.31
2019-02-26T19:13:37.397Z,71.46
2019-02-26T19:16:07.507Z,71.53
2019-02-26T19:18:38.552Z,71.54
2019-02-26T19:21:08.965Z,71.84
2019-02-26T19:23:39.210Z,71.99
2019-02-26T19:26:13.562Z,72.24
2019-02-26T19:28:41.535Z,72.41
2019-02-26T19:31:11.919Z,72.47
2019-02-26T19:33:42.279Z,72.47
2019-02-26T19:36:13.626Z,72.77
2019-02-26T19:38:44.464Z,72.95
2019-02-26T19:41:17.073Z,73.24
2019-02-26T19:43:53.286Z,73.94
2019-02-26T19:46:52.256Z,74.17
2019-02-26T19:49:30.487Z,74.61
2019-02-26T19:52:11.869Z,74.37
2019-02-26T19:55:30.724Z,74.32
2019-02-26T19:58:06.799Z,73.90
2019-02-26T20:00:40.064Z,74.15
2019-02-26T20:03:16.447Z,74.30
2019-02-26T20:05:48.742Z,74.47
2019-02-26T20:11:22.364Z,74.56
2019-02-26T20:14:11.363Z,74.57
2019-02-26T20:16:44.262Z,74.42
2019-02-26T20:19:31.795Z,74.45
2019-02-26T20:22:04.863Z,74.39
2019-02-26T20:25:16.586Z,74.45
2019-02-26T20:27:13.084Z,74.57
2019-02-26T20:29:57.352Z,74.50
2019-02-26T20:36:28.386Z,73.94
2019-02-26T20:39:13.726Z,73.68
2019-02-26T20:41:56.373Z,73.29
2019-02-26T20:44:45.258Z,73.12
2019-02-26T20:47:31.297Z,72.76
2019-02-26T20:50:10.052Z,72.55
2019-02-26T20:56:31.586Z,71.92
2019-02-26T21:05:19.987Z,71.62
2019-02-26T21:07:50.860Z,71.73
2019-02-26T21:10:29.416Z,71.83
2019-02-26T21:13:26.945Z,71.90
2019-02-26T21:16:14.925Z,71.95
2019-02-26T21:18:47.640Z,72.13
2019-02-26T21:21:48.918Z,72.01
2019-02-26T21:24:27.376Z,72.00
2019-02-26T21:27:26.634Z,71.85
2019-02-26T21:30:00.912Z,71.58
2019-02-26T21:33:15.799Z,71.45
2019-02-26T21:35:58.661Z,71.39
2019-02-26T21:38:53.771Z,71.17
2019-02-26T21:51:02.331Z,71.09
2019-02-26T22:35:04.290Z,71.04
2019-02-26T22:37:34.041Z,70.95
2019-02-26T22:40:03.905Z,70.98
2019-02-26T22:42:34.638Z,70.72
2019-02-26T22:45:05.407Z,71.01
2019-02-26T22:47:40.235Z,70.98
2019-02-26T22:50:09.169Z,71.23
2019-02-26T22:52:38.959Z,71.15
2019-02-26T22:55:10.615Z,71.06
2019-02-26T22:57:40.413Z,71.42
2019-02-26T23:00:20.824Z,71.63
2019-02-26T23:02:50.621Z,71.88
2019-02-26T23:05:20.358Z,72.13
2019-02-26T23:07:50.170Z,71.77
2019-02-26T23:10:19.898Z,72.44
2019-02-26T23:12:49.690Z,71.80
2019-02-26T23:15:19.431Z,71.98
2019-02-26T23:17:49.308Z,72.87
2019-02-26T23:20:19.081Z,73.17
2019-02-26T23:22:49.485Z,72.88
2019-02-26T23:25:19.253Z,73.03
2019-02-26T23:27:49.364Z,73.33
2019-02-26T23:30:19.305Z,73.05
2019-02-26T23:32:49.045Z,72.94
2019-02-26T23:35:18.898Z,72.41
2019-02-26T23:37:48.630Z,72.53
2019-02-26T23:40:18.402Z,72.51
2019-02-26T23:42:48.191Z,72.41
2019-02-26T23:45:18.000Z,72.79
2019-02-26T23:47:47.767Z,72.57
2019-02-26T23:50:17.576Z,72.38
2019-02-26T23:52:47.348Z,72.47
2019-02-26T23:55:17.120Z,72.58
2019-02-26T23:57:46.916Z,72.82
